Weather at Ihtiman Airfield

Public forecast

Using degrees Celsius for public forecast. Weather courtesy of forecast.io.

Closest aviation weather report (METAR) to Ihtiman Airfield

Closest report is Sofia Airport, 22.8 nm (42.2 km) NW. Retrieved 2022/05/18 09:30 UTC (4 minutes ago):

LBSF 180930Z 28009KT 250V350 8000 -SHRA FEW023 FEW035CB BKN045 BKN051 18/14 Q1017 TEMPO 3000 SHRA

Closest aviation forecast (TAF) to Ihtiman Airfield

Closest forecast is Sofia Airport, 22.8 nm (42.2 km) NW. Retrieved 2022/05/18 06:19 UTC (3 hours ago):

TAF LBSF 180500Z 1806/1906 30010KT 9999 SCT025 BKN040 PROB40 TEMPO 1806/1808 5000 SHRA SCT020 FEW030CB OVC040 TEMPO 1809/1815 3000 TSRA SCT015 SCT025CB OVC030 BECMG 1813/1815 03012KT BECMG 1819/1820 VRB04KT